sensor_id;sensor_type;location;lat;lon;timestamp;P1;durP1;ratioP1;P2;durP2;ratioP2
23300;SDS011;11819;51.394;12.340;2023-07-09T00:01:05;11.13;;;9.23;;
23300;SDS011;11819;51.394;12.340;2023-07-09T00:03:37;11.23;;;9.32;;
23300;SDS011;11819;51.394;12.340;2023-07-09T00:06:02;11.43;;;10.10;;
23300;SDS011;11819;51.394;12.340;2023-07-09T00:08:29;11.75;;;9.50;;
23300;SDS011;11819;51.394;12.340;2023-07-09T00:10:56;12.30;;;10.07;;
23300;SDS011;11819;51.394;12.340;2023-07-09T00:13:24;11.88;;;9.43;;
23300;SDS011;11819;51.394;12.340;2023-07-09T00:15:51;11.45;;;9.40;;
23300;SDS011;11819;51.394;12.340;2023-07-09T00:18:18;10.88;;;9.75;;
23300;SDS011;11819;51.394;12.340;2023-07-09T00:20:43;11.07;;;9.30;;
23300;SDS011;11819;51.394;12.340;2023-07-09T00:23:09;13.40;;;9.30;;
23300;SDS011;11819;51.394;12.340;2023-07-09T00:25:39;10.23;;;9.23;;
23300;SDS011;11819;51.394;12.340;2023-07-09T00:28:11;12.02;;;10.07;;
23300;SDS011;11819;51.394;12.340;2023-07-09T00:30:41;11.38;;;10.18;;
23300;SDS011;11819;51.394;12.340;2023-07-09T00:33:13;11.43;;;10.23;;
23300;SDS011;11819;51.394;12.340;2023-07-09T00:35:43;10.75;;;9.65;;
23300;SDS011;11819;51.394;12.340;2023-07-09T00:38:15;14.40;;;10.07;;
23300;SDS011;11819;51.394;12.340;2023-07-09T00:40:47;11.60;;;9.98;;
23300;SDS011;11819;51.394;12.340;2023-07-09T00:43:24;14.57;;;10.20;;
23300;SDS011;11819;51.394;12.340;2023-07-09T00:48:40;11.38;;;10.23;;
23300;SDS011;11819;51.394;12.340;2023-07-09T00:51:13;11.75;;;9.98;;
23300;SDS011;11819;51.394;12.340;2023-07-09T00:53:43;11.30;;;9.90;;
23300;SDS011;11819;51.394;12.340;2023-07-09T00:56:16;11.40;;;10.20;;
23300;SDS011;11819;51.394;12.340;2023-07-09T00:58:49;12.10;;;10.52;;
23300;SDS011;11819;51.394;12.340;2023-07-09T01:01:16;11.68;;;10.48;;
23300;SDS011;11819;51.394;12.340;2023-07-09T01:03:52;12.00;;;9.93;;
23300;SDS011;11819;51.394;12.340;2023-07-09T01:06:29;11.40;;;10.25;;
23300;SDS011;11819;51.394;12.340;2023-07-09T01:09:00;11.20;;;10.10;;
23300;SDS011;11819;51.394;12.340;2023-07-09T01:11:28;13.18;;;9.82;;
23300;SDS011;11819;51.394;12.340;2023-07-09T01:13:55;12.07;;;10.35;;
23300;SDS011;11819;51.394;12.340;2023-07-09T01:16:25;12.00;;;10.38;;
23300;SDS011;11819;51.394;12.340;2023-07-09T01:18:55;11.55;;;10.32;;
23300;SDS011;11819;51.394;12.340;2023-07-09T01:21:21;12.50;;;10.35;;
23300;SDS011;11819;51.394;12.340;2023-07-09T01:23:48;11.75;;;10.27;;
23300;SDS011;11819;51.394;12.340;2023-07-09T01:26:16;12.45;;;10.50;;
23300;SDS011;11819;51.394;12.340;2023-07-09T01:28:44;11.48;;;10.35;;
23300;SDS011;11819;51.394;12.340;2023-07-09T01:31:14;11.95;;;10.75;;
23300;SDS011;11819;51.394;12.340;2023-07-09T01:36:18;11.23;;;10.00;;
23300;SDS011;11819;51.394;12.340;2023-07-09T01:38:48;11.82;;;10.63;;
23300;SDS011;11819;51.394;12.340;2023-07-09T01:41:15;14.15;;;10.52;;
23300;SDS011;11819;51.394;12.340;2023-07-09T01:43:44;12.95;;;10.32;;
23300;SDS011;11819;51.394;12.340;2023-07-09T01:46:11;14.50;;;11.15;;
23300;SDS011;11819;51.394;12.340;2023-07-09T01:48:37;14.82;;;10.88;;
23300;SDS011;11819;51.394;12.340;2023-07-09T01:51:11;12.23;;;10.93;;
23300;SDS011;11819;51.394;12.340;2023-07-09T01:53:39;14.00;;;11.60;;
23300;SDS011;11819;51.394;12.340;2023-07-09T01:56:10;13.25;;;10.68;;
23300;SDS011;11819;51.394;12.340;2023-07-09T01:58:36;11.88;;;10.63;;
23300;SDS011;11819;51.394;12.340;2023-07-09T02:01:07;12.55;;;10.80;;
23300;SDS011;11819;51.394;12.340;2023-07-09T02:03:33;12.27;;;11.00;;
23300;SDS011;11819;51.394;12.340;2023-07-09T02:05:59;13.70;;;11.10;;
23300;SDS011;11819;51.394;12.340;2023-07-09T02:08:27;11.60;;;10.43;;
23300;SDS011;11819;51.394;12.340;2023-07-09T02:10:54;12.80;;;11.50;;
23300;SDS011;11819;51.394;12.340;2023-07-09T02:13:19;12.25;;;11.05;;
23300;SDS011;11819;51.394;12.340;2023-07-09T02:15:45;14.15;;;11.90;;
23300;SDS011;11819;51.394;12.340;2023-07-09T02:18:11;13.10;;;11.25;;
23300;SDS011;11819;51.394;12.340;2023-07-09T02:20:37;12.57;;;11.35;;
23300;SDS011;11819;51.394;12.340;2023-07-09T02:23:03;12.45;;;11.15;;
23300;SDS011;11819;51.394;12.340;2023-07-09T02:25:30;14.05;;;11.60;;
23300;SDS011;11819;51.394;12.340;2023-07-09T02:27:55;12.57;;;11.25;;
23300;SDS011;11819;51.394;12.340;2023-07-09T02:30:21;15.10;;;11.45;;
23300;SDS011;11819;51.394;12.340;2023-07-09T02:32:46;12.85;;;11.55;;
23300;SDS011;11819;51.394;12.340;2023-07-09T02:35:12;15.20;;;11.90;;
23300;SDS011;11819;51.394;12.340;2023-07-09T02:37:38;13.27;;;11.88;;
23300;SDS011;11819;51.394;12.340;2023-07-09T02:40:04;13.48;;;11.63;;
23300;SDS011;11819;51.394;12.340;2023-07-09T02:42:30;13.02;;;11.55;;
23300;SDS011;11819;51.394;12.340;2023-07-09T02:44:57;12.82;;;11.52;;
23300;SDS011;11819;51.394;12.340;2023-07-09T02:47:25;13.75;;;11.98;;
23300;SDS011;11819;51.394;12.340;2023-07-09T02:49:52;13.75;;;11.35;;
23300;SDS011;11819;51.394;12.340;2023-07-09T02:52:18;14.05;;;11.60;;
23300;SDS011;11819;51.394;12.340;2023-07-09T02:54:44;13.10;;;11.70;;
23300;SDS011;11819;51.394;12.340;2023-07-09T02:57:09;12.93;;;11.32;;
23300;SDS011;11819;51.394;12.340;2023-07-09T02:59:35;15.05;;;11.60;;
23300;SDS011;11819;51.394;12.340;2023-07-09T03:02:02;13.32;;;11.93;;
23300;SDS011;11819;51.394;12.340;2023-07-09T03:04:28;13.20;;;11.85;;
23300;SDS011;11819;51.394;12.340;2023-07-09T03:06:53;14.55;;;12.00;;
23300;SDS011;11819;51.394;12.340;2023-07-09T03:09:19;13.00;;;11.60;;
23300;SDS011;11819;51.394;12.340;2023-07-09T03:11:52;14.20;;;12.20;;
23300;SDS011;11819;51.394;12.340;2023-07-09T03:14:18;13.88;;;12.48;;
23300;SDS011;11819;51.394;12.340;2023-07-09T03:16:44;13.38;;;12.05;;
23300;SDS011;11819;51.394;12.340;2023-07-09T03:19:10;13.60;;;11.65;;
23300;SDS011;11819;51.394;12.340;2023-07-09T03:21:36;14.30;;;12.05;;
23300;SDS011;11819;51.394;12.340;2023-07-09T03:24:02;14.57;;;12.93;;
23300;SDS011;11819;51.394;12.340;2023-07-09T03:26:28;14.80;;;12.23;;
23300;SDS011;11819;51.394;12.340;2023-07-09T03:28:54;13.82;;;12.00;;
23300;SDS011;11819;51.394;12.340;2023-07-09T03:31:20;13.90;;;12.50;;
23300;SDS011;11819;51.394;12.340;2023-07-09T03:33:47;14.00;;;12.35;;
23300;SDS011;11819;51.394;12.340;2023-07-09T03:36:13;13.23;;;11.80;;
23300;SDS011;11819;51.394;12.340;2023-07-09T03:38:39;13.60;;;12.10;;
23300;SDS011;11819;51.394;12.340;2023-07-09T03:41:04;14.50;;;12.65;;
23300;SDS011;11819;51.394;12.340;2023-07-09T03:43:32;14.15;;;12.75;;
23300;SDS011;11819;51.394;12.340;2023-07-09T03:45:58;15.70;;;12.65;;
23300;SDS011;11819;51.394;12.340;2023-07-09T03:48:23;13.70;;;12.23;;
23300;SDS011;11819;51.394;12.340;2023-07-09T03:50:49;14.38;;;12.85;;
23300;SDS011;11819;51.394;12.340;2023-07-09T03:53:15;15.57;;;12.90;;
23300;SDS011;11819;51.394;12.340;2023-07-09T03:55:41;14.75;;;13.23;;
23300;SDS011;11819;51.394;12.340;2023-07-09T03:58:07;14.20;;;12.90;;
23300;SDS011;11819;51.394;12.340;2023-07-09T04:00:34;15.30;;;13.70;;
23300;SDS011;11819;51.394;12.340;2023-07-09T04:03:00;14.93;;;13.30;;
23300;SDS011;11819;51.394;12.340;2023-07-09T04:05:26;15.23;;;13.60;;
23300;SDS011;11819;51.394;12.340;2023-07-09T04:07:52;15.88;;;13.90;;
23300;SDS011;11819;51.394;12.340;2023-07-09T04:10:19;14.68;;;13.15;;
23300;SDS011;11819;51.394;12.340;2023-07-09T04:12:45;16.80;;;13.40;;
23300;SDS011;11819;51.394;12.340;2023-07-09T04:15:12;14.68;;;13.18;;
23300;SDS011;11819;51.394;12.340;2023-07-09T04:17:39;14.73;;;13.23;;
23300;SDS011;11819;51.394;12.340;2023-07-09T04:20:06;14.90;;;13.38;;
23300;SDS011;11819;51.394;12.340;2023-07-09T04:22:33;15.00;;;13.40;;
23300;SDS011;11819;51.394;12.340;2023-07-09T04:24:59;14.25;;;12.85;;
23300;SDS011;11819;51.394;12.340;2023-07-09T04:27:25;14.65;;;13.20;;
23300;SDS011;11819;51.394;12.340;2023-07-09T04:29:54;15.75;;;13.20;;
23300;SDS011;11819;51.394;12.340;2023-07-09T04:32:21;16.77;;;13.43;;
23300;SDS011;11819;51.394;12.340;2023-07-09T04:34:47;15.70;;;14.10;;
23300;SDS011;11819;51.394;12.340;2023-07-09T04:37:13;16.13;;;14.43;;
23300;SDS011;11819;51.394;12.340;2023-07-09T04:39:42;14.93;;;13.35;;
23300;SDS011;11819;51.394;12.340;2023-07-09T04:42:12;15.13;;;13.60;;
23300;SDS011;11819;51.394;12.340;2023-07-09T04:44:39;15.02;;;13.35;;
23300;SDS011;11819;51.394;12.340;2023-07-09T04:47:05;14.88;;;13.27;;
23300;SDS011;11819;51.394;12.340;2023-07-09T04:49:31;16.13;;;13.75;;
23300;SDS011;11819;51.394;12.340;2023-07-09T04:52:01;14.95;;;13.30;;
23300;SDS011;11819;51.394;12.340;2023-07-09T04:54:27;16.77;;;13.70;;
23300;SDS011;11819;51.394;12.340;2023-07-09T04:56:53;18.55;;;13.57;;
23300;SDS011;11819;51.394;12.340;2023-07-09T04:59:19;14.80;;;13.20;;
23300;SDS011;11819;51.394;12.340;2023-07-09T05:01:46;16.45;;;12.90;;
23300;SDS011;11819;51.394;12.340;2023-07-09T05:04:11;14.25;;;12.82;;
23300;SDS011;11819;51.394;12.340;2023-07-09T05:06:37;14.38;;;12.82;;
23300;SDS011;11819;51.394;12.340;2023-07-09T05:09:03;14.57;;;13.05;;
23300;SDS011;11819;51.394;12.340;2023-07-09T05:11:30;14.15;;;12.75;;
23300;SDS011;11819;51.394;12.340;2023-07-09T05:13:58;14.70;;;13.10;;
23300;SDS011;11819;51.394;12.340;2023-07-09T05:16:24;13.82;;;12.40;;
23300;SDS011;11819;51.394;12.340;2023-07-09T05:18:49;14.00;;;12.60;;
23300;SDS011;11819;51.394;12.340;2023-07-09T05:21:15;14.10;;;12.38;;
23300;SDS011;11819;51.394;12.340;2023-07-09T05:23:40;14.30;;;12.80;;
23300;SDS011;11819;51.394;12.340;2023-07-09T05:26:07;13.80;;;12.35;;
23300;SDS011;11819;51.394;12.340;2023-07-09T05:28:34;14.55;;;12.85;;
23300;SDS011;11819;51.394;12.340;2023-07-09T05:31:01;13.73;;;12.20;;
23300;SDS011;11819;51.394;12.340;2023-07-09T05:33:28;13.93;;;12.48;;
23300;SDS011;11819;51.394;12.340;2023-07-09T05:35:54;13.45;;;12.05;;
23300;SDS011;11819;51.394;12.340;2023-07-09T05:38:20;13.55;;;12.25;;
23300;SDS011;11819;51.394;12.340;2023-07-09T05:40:46;13.07;;;11.88;;
23300;SDS011;11819;51.394;12.340;2023-07-09T05:43:11;14.88;;;12.57;;
23300;SDS011;11819;51.394;12.340;2023-07-09T05:45:40;13.43;;;12.13;;
23300;SDS011;11819;51.394;12.340;2023-07-09T05:48:06;14.30;;;12.90;;
23300;SDS011;11819;51.394;12.340;2023-07-09T05:50:32;15.40;;;13.13;;
23300;SDS011;11819;51.394;12.340;2023-07-09T05:52:59;13.88;;;12.48;;
23300;SDS011;11819;51.394;12.340;2023-07-09T05:55:25;13.68;;;12.02;;
23300;SDS011;11819;51.394;12.340;2023-07-09T05:57:51;13.45;;;12.05;;
23300;SDS011;11819;51.394;12.340;2023-07-09T06:00:18;14.65;;;12.10;;
23300;SDS011;11819;51.394;12.340;2023-07-09T06:02:43;14.05;;;12.30;;
23300;SDS011;11819;51.394;12.340;2023-07-09T06:05:09;13.10;;;11.80;;
23300;SDS011;11819;51.394;12.340;2023-07-09T06:07:36;13.52;;;12.13;;
23300;SDS011;11819;51.394;12.340;2023-07-09T06:10:02;15.07;;;12.23;;
23300;SDS011;11819;51.394;12.340;2023-07-09T06:12:30;13.65;;;11.82;;
23300;SDS011;11819;51.394;12.340;2023-07-09T06:15:00;13.88;;;11.93;;
23300;SDS011;11819;51.394;12.340;2023-07-09T06:17:25;12.80;;;11.50;;
23300;SDS011;11819;51.394;12.340;2023-07-09T06:19:51;13.65;;;11.80;;
23300;SDS011;11819;51.394;12.340;2023-07-09T06:22:17;13.40;;;12.00;;
23300;SDS011;11819;51.394;12.340;2023-07-09T06:24:42;13.20;;;11.68;;
23300;SDS011;11819;51.394;12.340;2023-07-09T06:27:10;15.77;;;11.77;;
23300;SDS011;11819;51.394;12.340;2023-07-09T06:29:36;14.40;;;11.10;;
23300;SDS011;11819;51.394;12.340;2023-07-09T06:32:02;13.18;;;11.88;;
23300;SDS011;11819;51.394;12.340;2023-07-09T06:34:28;12.98;;;10.85;;
23300;SDS011;11819;51.394;12.340;2023-07-09T06:36:55;14.18;;;12.68;;
23300;SDS011;11819;51.394;12.340;2023-07-09T06:39:22;13.18;;;11.85;;
23300;SDS011;11819;51.394;12.340;2023-07-09T06:41:48;13.90;;;11.35;;
23300;SDS011;11819;51.394;12.340;2023-07-09T06:44:33;12.95;;;11.65;;
23300;SDS011;11819;51.394;12.340;2023-07-09T06:46:59;12.75;;;11.43;;
23300;SDS011;11819;51.394;12.340;2023-07-09T06:49:24;12.73;;;11.10;;
23300;SDS011;11819;51.394;12.340;2023-07-09T06:51:50;14.15;;;11.25;;
23300;SDS011;11819;51.394;12.340;2023-07-09T06:54:15;13.23;;;11.82;;
23300;SDS011;11819;51.394;12.340;2023-07-09T06:56:41;13.32;;;11.88;;
23300;SDS011;11819;51.394;12.340;2023-07-09T06:59:07;11.88;;;10.68;;
23300;SDS011;11819;51.394;12.340;2023-07-09T07:01:32;12.95;;;11.63;;
23300;SDS011;11819;51.394;12.340;2023-07-09T07:03:58;12.70;;;11.40;;
23300;SDS011;11819;51.394;12.340;2023-07-09T07:06:24;12.80;;;11.07;;
23300;SDS011;11819;51.394;12.340;2023-07-09T07:08:49;11.98;;;10.77;;
23300;SDS011;11819;51.394;12.340;2023-07-09T07:11:15;12.15;;;10.95;;
23300;SDS011;11819;51.394;12.340;2023-07-09T07:13:48;13.52;;;11.55;;
23300;SDS011;11819;51.394;12.340;2023-07-09T07:16:16;12.45;;;11.25;;
23300;SDS011;11819;51.394;12.340;2023-07-09T07:18:42;12.43;;;11.23;;
23300;SDS011;11819;51.394;12.340;2023-07-09T07:21:07;12.63;;;11.32;;
23300;SDS011;11819;51.394;12.340;2023-07-09T07:23:33;12.32;;;11.02;;
23300;SDS011;11819;51.394;12.340;2023-07-09T07:25:58;12.32;;;11.13;;
23300;SDS011;11819;51.394;12.340;2023-07-09T07:28:25;12.40;;;10.75;;
23300;SDS011;11819;51.394;12.340;2023-07-09T07:31:00;12.38;;;10.55;;
23300;SDS011;11819;51.394;12.340;2023-07-09T07:33:27;13.40;;;11.00;;
23300;SDS011;11819;51.394;12.340;2023-07-09T07:35:53;12.43;;;11.13;;
23300;SDS011;11819;51.394;12.340;2023-07-09T07:38:18;12.75;;;11.50;;
23300;SDS011;11819;51.394;12.340;2023-07-09T07:40:44;14.25;;;10.77;;
23300;SDS011;11819;51.394;12.340;2023-07-09T07:43:10;12.93;;;11.27;;
23300;SDS011;11819;51.394;12.340;2023-07-09T07:45:39;12.45;;;11.00;;
23300;SDS011;11819;51.394;12.340;2023-07-09T07:48:06;11.82;;;10.63;;
23300;SDS011;11819;51.394;12.340;2023-07-09T07:50:32;11.57;;;10.38;;
23300;SDS011;11819;51.394;12.340;2023-07-09T07:53:02;12.27;;;10.98;;
23300;SDS011;11819;51.394;12.340;2023-07-09T07:55:27;12.27;;;11.07;;
23300;SDS011;11819;51.394;12.340;2023-07-09T07:57:53;11.60;;;10.40;;
23300;SDS011;11819;51.394;12.340;2023-07-09T08:00:19;12.77;;;10.15;;
23300;SDS011;11819;51.394;12.340;2023-07-09T08:02:45;11.40;;;10.23;;
23300;SDS011;11819;51.394;12.340;2023-07-09T08:05:11;12.25;;;10.98;;
23300;SDS011;11819;51.394;12.340;2023-07-09T08:07:37;11.90;;;10.70;;
23300;SDS011;11819;51.394;12.340;2023-07-09T08:10:02;12.77;;;11.23;;
23300;SDS011;11819;51.394;12.340;2023-07-09T08:12:28;13.50;;;10.57;;
23300;SDS011;11819;51.394;12.340;2023-07-09T08:14:54;11.68;;;10.48;;
23300;SDS011;11819;51.394;12.340;2023-07-09T08:17:19;11.50;;;10.43;;
23300;SDS011;11819;51.394;12.340;2023-07-09T08:19:46;11.68;;;10.48;;
23300;SDS011;11819;51.394;12.340;2023-07-09T08:22:14;12.35;;;10.07;;
23300;SDS011;11819;51.394;12.340;2023-07-09T08:24:40;11.02;;;9.90;;
23300;SDS011;11819;51.394;12.340;2023-07-09T08:27:07;12.63;;;11.40;;
23300;SDS011;11819;51.394;12.340;2023-07-09T08:29:33;11.38;;;10.27;;
23300;SDS011;11819;51.394;12.340;2023-07-09T08:31:59;12.63;;;10.45;;
23300;SDS011;11819;51.394;12.340;2023-07-09T08:34:30;11.88;;;10.68;;
23300;SDS011;11819;51.394;12.340;2023-07-09T08:36:55;11.25;;;10.05;;
23300;SDS011;11819;51.394;12.340;2023-07-09T08:39:21;13.35;;;10.60;;
23300;SDS011;11819;51.394;12.340;2023-07-09T08:41:50;11.20;;;10.05;;
23300;SDS011;11819;51.394;12.340;2023-07-09T08:47:07;10.98;;;9.88;;
23300;SDS011;11819;51.394;12.340;2023-07-09T08:49:50;11.25;;;10.05;;
23300;SDS011;11819;51.394;12.340;2023-07-09T08:52:42;10.88;;;9.65;;
23300;SDS011;11819;51.394;12.340;2023-07-09T08:55:14;10.93;;;9.82;;
23300;SDS011;11819;51.394;12.340;2023-07-09T08:57:49;11.55;;;10.07;;
23300;SDS011;11819;51.394;12.340;2023-07-09T09:06:13;10.20;;;9.10;;
23300;SDS011;11819;51.394;12.340;2023-07-09T09:17:03;9.50;;;8.60;;
23300;SDS011;11819;51.394;12.340;2023-07-09T09:19:45;10.68;;;8.52;;
23300;SDS011;11819;51.394;12.340;2023-07-09T09:22:14;10.32;;;9.23;;
23300;SDS011;11819;51.394;12.340;2023-07-09T09:25:04;9.60;;;8.60;;
23300;SDS011;11819;51.394;12.340;2023-07-09T09:27:37;9.20;;;8.30;;
23300;SDS011;11819;51.394;12.340;2023-07-09T09:30:03;10.23;;;8.52;;
23300;SDS011;11819;51.394;12.340;2023-07-09T09:32:36;10.52;;;8.55;;
23300;SDS011;11819;51.394;12.340;2023-07-09T09:35:26;9.80;;;8.80;;
23300;SDS011;11819;51.394;12.340;2023-07-09T09:43:16;10.13;;;8.30;;
23300;SDS011;11819;51.394;12.340;2023-07-09T09:45:44;9.20;;;8.13;;
23300;SDS011;11819;51.394;12.340;2023-07-09T09:48:19;9.05;;;8.15;;
23300;SDS011;11819;51.394;12.340;2023-07-09T09:50:57;9.27;;;8.25;;
23300;SDS011;11819;51.394;12.340;2023-07-09T09:53:28;8.68;;;7.75;;
23300;SDS011;11819;51.394;12.340;2023-07-09T09:55:59;9.23;;;8.18;;
23300;SDS011;11819;51.394;12.340;2023-07-09T09:58:32;9.48;;;8.50;;
23300;SDS011;11819;51.394;12.340;2023-07-09T10:00:58;8.50;;;7.60;;
23300;SDS011;11819;51.394;12.340;2023-07-09T10:03:32;10.38;;;8.00;;
23300;SDS011;11819;51.394;12.340;2023-07-09T10:05:59;8.73;;;7.68;;
23300;SDS011;11819;51.394;12.340;2023-07-09T10:09:13;8.20;;;7.40;;
23300;SDS011;11819;51.394;12.340;2023-07-09T10:17:23;8.48;;;7.45;;
23300;SDS011;11819;51.394;12.340;2023-07-09T10:23:17;9.38;;;7.72;;
23300;SDS011;11819;51.394;12.340;2023-07-09T10:25:52;9.60;;;7.65;;
23300;SDS011;11819;51.394;12.340;2023-07-09T10:39:29;8.43;;;7.55;;
23300;SDS011;11819;51.394;12.340;2023-07-09T10:42:03;8.70;;;7.55;;
23300;SDS011;11819;51.394;12.340;2023-07-09T10:44:35;11.02;;;7.63;;
23300;SDS011;11819;51.394;12.340;2023-07-09T10:47:25;12.95;;;7.68;;
23300;SDS011;11819;51.394;12.340;2023-07-09T10:49:59;9.73;;;7.63;;
23300;SDS011;11819;51.394;12.340;2023-07-09T10:52:34;9.02;;;7.85;;
23300;SDS011;11819;51.394;12.340;2023-07-09T10:55:12;8.50;;;7.28;;
23300;SDS011;11819;51.394;12.340;2023-07-09T10:58:02;9.98;;;7.22;;
23300;SDS011;11819;51.394;12.340;2023-07-09T11:00:34;8.90;;;7.57;;
23300;SDS011;11819;51.394;12.340;2023-07-09T11:03:05;10.20;;;7.72;;
23300;SDS011;11819;51.394;12.340;2023-07-09T11:05:42;8.70;;;7.55;;
23300;SDS011;11819;51.394;12.340;2023-07-09T11:08:29;8.32;;;7.47;;
23300;SDS011;11819;51.394;12.340;2023-07-09T11:11:01;8.95;;;7.80;;
23300;SDS011;11819;51.394;12.340;2023-07-09T11:13:37;9.85;;;7.57;;
23300;SDS011;11819;51.394;12.340;2023-07-09T11:16:08;8.70;;;7.40;;
23300;SDS011;11819;51.394;12.340;2023-07-09T11:18:41;8.88;;;7.57;;
23300;SDS011;11819;51.394;12.340;2023-07-09T11:21:19;10.15;;;7.80;;
23300;SDS011;11819;51.394;12.340;2023-07-09T11:23:46;9.82;;;7.72;;
23300;SDS011;11819;51.394;12.340;2023-07-09T11:26:33;9.65;;;7.40;;
23300;SDS011;11819;51.394;12.340;2023-07-09T11:36:33;10.45;;;7.90;;
23300;SDS011;11819;51.394;12.340;2023-07-09T11:38:59;10.70;;;7.35;;
23300;SDS011;11819;51.394;12.340;2023-07-09T11:41:43;8.63;;;7.72;;
23300;SDS011;11819;51.394;12.340;2023-07-09T11:46:44;11.02;;;7.28;;
23300;SDS011;11819;51.394;12.340;2023-07-09T11:49:23;9.85;;;7.93;;
23300;SDS011;11819;51.394;12.340;2023-07-09T11:51:52;9.05;;;7.70;;
23300;SDS011;11819;51.394;12.340;2023-07-09T11:54:23;9.00;;;7.80;;
23300;SDS011;11819;51.394;12.340;2023-07-09T11:56:58;9.48;;;7.95;;
23300;SDS011;11819;51.394;12.340;2023-07-09T11:59:26;9.85;;;8.10;;
23300;SDS011;11819;51.394;12.340;2023-07-09T12:01:52;8.57;;;7.45;;
23300;SDS011;11819;51.394;12.340;2023-07-09T12:04:31;9.50;;;7.53;;
23300;SDS011;11819;51.394;12.340;2023-07-09T12:07:00;9.25;;;7.75;;
23300;SDS011;11819;51.394;12.340;2023-07-09T12:09:32;9.25;;;7.50;;
23300;SDS011;11819;51.394;12.340;2023-07-09T12:12:02;9.65;;;7.78;;
23300;SDS011;11819;51.394;12.340;2023-07-09T12:14:28;9.45;;;8.10;;
23300;SDS011;11819;51.394;12.340;2023-07-09T12:16:54;10.40;;;7.88;;
23300;SDS011;11819;51.394;12.340;2023-07-09T12:19:21;8.65;;;7.60;;
23300;SDS011;11819;51.394;12.340;2023-07-09T12:21:49;8.63;;;7.72;;
23300;SDS011;11819;51.394;12.340;2023-07-09T12:24:22;9.82;;;7.60;;
23300;SDS011;11819;51.394;12.340;2023-07-09T12:26:52;10.20;;;7.45;;
23300;SDS011;11819;51.394;12.340;2023-07-09T12:29:19;8.88;;;7.78;;
23300;SDS011;11819;51.394;12.340;2023-07-09T12:31:45;8.82;;;7.57;;
23300;SDS011;11819;51.394;12.340;2023-07-09T12:34:14;8.90;;;8.00;;
23300;SDS011;11819;51.394;12.340;2023-07-09T12:36:41;9.68;;;7.70;;
23300;SDS011;11819;51.394;12.340;2023-07-09T12:39:11;8.88;;;7.63;;
23300;SDS011;11819;51.394;12.340;2023-07-09T12:41:41;8.60;;;7.50;;
23300;SDS011;11819;51.394;12.340;2023-07-09T12:44:17;11.27;;;7.78;;
23300;SDS011;11819;51.394;12.340;2023-07-09T12:46:45;8.07;;;7.22;;
23300;SDS011;11819;51.394;12.340;2023-07-09T12:49:25;8.20;;;7.35;;
23300;SDS011;11819;51.394;12.340;2023-07-09T12:51:56;8.77;;;7.20;;
23300;SDS011;11819;51.394;12.340;2023-07-09T12:54:24;9.25;;;7.78;;
23300;SDS011;11819;51.394;12.340;2023-07-09T12:56:51;10.45;;;7.82;;
23300;SDS011;11819;51.394;12.340;2023-07-09T12:59:20;9.88;;;7.78;;
23300;SDS011;11819;51.394;12.340;2023-07-09T13:01:54;9.45;;;7.82;;
23300;SDS011;11819;51.394;12.340;2023-07-09T13:04:27;9.95;;;7.65;;
23300;SDS011;11819;51.394;12.340;2023-07-09T13:06:57;11.15;;;7.57;;
23300;SDS011;11819;51.394;12.340;2023-07-09T13:09:25;9.18;;;7.70;;
23300;SDS011;11819;51.394;12.340;2023-07-09T13:11:51;11.02;;;8.20;;
23300;SDS011;11819;51.394;12.340;2023-07-09T13:14:22;10.93;;;7.78;;
23300;SDS011;11819;51.394;12.340;2023-07-09T13:16:52;10.98;;;7.82;;
23300;SDS011;11819;51.394;12.340;2023-07-09T13:19:26;9.70;;;8.43;;
23300;SDS011;11819;51.394;12.340;2023-07-09T13:21:52;11.50;;;8.30;;
23300;SDS011;11819;51.394;12.340;2023-07-09T13:24:24;7.97;;;7.10;;
23300;SDS011;11819;51.394;12.340;2023-07-09T13:26:53;8.75;;;7.47;;
23300;SDS011;11819;51.394;12.340;2023-07-09T13:29:19;8.93;;;6.82;;
23300;SDS011;11819;51.394;12.340;2023-07-09T13:31:45;9.93;;;7.57;;
23300;SDS011;11819;51.394;12.340;2023-07-09T13:34:45;13.30;;;7.32;;
23300;SDS011;11819;51.394;12.340;2023-07-09T13:37:05;9.13;;;7.45;;
23300;SDS011;11819;51.394;12.340;2023-07-09T13:39:36;9.43;;;7.50;;
23300;SDS011;11819;51.394;12.340;2023-07-09T13:42:01;8.50;;;7.53;;
23300;SDS011;11819;51.394;12.340;2023-07-09T13:44:28;8.23;;;7.38;;
23300;SDS011;11819;51.394;12.340;2023-07-09T13:46:55;11.00;;;8.25;;
23300;SDS011;11819;51.394;12.340;2023-07-09T13:49:22;10.13;;;7.88;;
23300;SDS011;11819;51.394;12.340;2023-07-09T13:51:51;9.70;;;7.57;;
23300;SDS011;11819;51.394;12.340;2023-07-09T13:54:23;11.23;;;7.75;;
23300;SDS011;11819;51.394;12.340;2023-07-09T13:56:52;8.73;;;7.50;;
23300;SDS011;11819;51.394;12.340;2023-07-09T13:59:19;8.70;;;7.60;;
23300;SDS011;11819;51.394;12.340;2023-07-09T14:01:50;8.63;;;7.68;;
23300;SDS011;11819;51.394;12.340;2023-07-09T14:04:17;9.95;;;7.50;;
23300;SDS011;11819;51.394;12.340;2023-07-09T14:06:44;9.25;;;7.75;;
23300;SDS011;11819;51.394;12.340;2023-07-09T14:09:14;8.95;;;6.97;;
23300;SDS011;11819;51.394;12.340;2023-07-09T14:11:51;9.25;;;7.47;;
23300;SDS011;11819;51.394;12.340;2023-07-09T14:14:22;10.10;;;7.65;;
23300;SDS011;11819;51.394;12.340;2023-07-09T14:16:49;9.32;;;7.32;;
23300;SDS011;11819;51.394;12.340;2023-07-09T14:19:17;8.32;;;7.32;;
23300;SDS011;11819;51.394;12.340;2023-07-09T14:21:46;9.88;;;7.70;;
23300;SDS011;11819;51.394;12.340;2023-07-09T14:24:19;8.52;;;7.47;;
23300;SDS011;11819;51.394;12.340;2023-07-09T14:26:46;8.32;;;6.75;;
23300;SDS011;11819;51.394;12.340;2023-07-09T14:29:12;8.73;;;7.65;;
23300;SDS011;11819;51.394;12.340;2023-07-09T14:31:41;8.27;;;7.35;;
23300;SDS011;11819;51.394;12.340;2023-07-09T14:34:16;9.18;;;8.02;;
23300;SDS011;11819;51.394;12.340;2023-07-09T14:36:48;8.48;;;7.40;;
23300;SDS011;11819;51.394;12.340;2023-07-09T14:39:15;7.97;;;7.18;;
23300;SDS011;11819;51.394;12.340;2023-07-09T14:41:41;10.73;;;7.85;;
23300;SDS011;11819;51.394;12.340;2023-07-09T14:46:48;9.90;;;8.18;;
23300;SDS011;11819;51.394;12.340;2023-07-09T14:49:15;9.48;;;7.88;;
23300;SDS011;11819;51.394;12.340;2023-07-09T14:51:41;8.38;;;7.47;;
23300;SDS011;11819;51.394;12.340;2023-07-09T14:56:46;8.77;;;7.13;;
23300;SDS011;11819;51.394;12.340;2023-07-09T14:59:12;9.48;;;7.80;;
23300;SDS011;11819;51.394;12.340;2023-07-09T15:01:38;9.30;;;7.53;;
23300;SDS011;11819;51.394;12.340;2023-07-09T15:06:53;8.82;;;7.45;;
23300;SDS011;11819;51.394;12.340;2023-07-09T15:09:21;8.55;;;7.55;;
23300;SDS011;11819;51.394;12.340;2023-07-09T15:11:48;8.48;;;7.38;;
23300;SDS011;11819;51.394;12.340;2023-07-09T15:14:16;9.63;;;7.60;;
23300;SDS011;11819;51.394;12.340;2023-07-09T15:16:42;9.02;;;7.20;;
23300;SDS011;11819;51.394;12.340;2023-07-09T15:19:14;8.35;;;7.28;;
23300;SDS011;11819;51.394;12.340;2023-07-09T15:21:41;8.30;;;7.38;;
23300;SDS011;11819;51.394;12.340;2023-07-09T15:24:26;8.23;;;7.30;;
23300;SDS011;11819;51.394;12.340;2023-07-09T15:26:55;9.63;;;7.25;;
23300;SDS011;11819;51.394;12.340;2023-07-09T15:29:22;8.98;;;6.97;;
23300;SDS011;11819;51.394;12.340;2023-07-09T15:31:48;9.07;;;8.18;;
23300;SDS011;11819;51.394;12.340;2023-07-09T15:34:14;9.18;;;7.43;;